createdAt,value
2022-08-26T00:01:54.594Z,98209.81
2022-08-26T00:06:57.814Z,98213.78
2022-08-26T00:12:02.578Z,98214.06
2022-08-26T00:17:05.655Z,98222.44
2022-08-26T00:22:12.083Z,98212.41
2022-08-26T00:27:16.258Z,98214.28
2022-08-26T00:32:20.222Z,98215.16
2022-08-26T00:37:23.097Z,98210.94
2022-08-26T00:42:29.147Z,98218.78
2022-08-26T00:47:35.364Z,98218.69
2022-08-26T00:52:41.543Z,98211.72
2022-08-26T00:57:50.295Z,98221.38
2022-08-26T01:02:54.829Z,98218.47
2022-08-26T01:07:58.261Z,98223.97
2022-08-26T01:13:07.019Z,98218.56
2022-08-26T01:18:10.690Z,98211.22
2022-08-26T01:23:16.869Z,98213.66
2022-08-26T01:28:24.041Z,98202.88
2022-08-26T01:33:31.179Z,98210.63
2022-08-26T01:38:46.498Z,98213.22
2022-08-26T01:43:53.630Z,98211.28
2022-08-26T01:48:59.743Z,98209.28
2022-08-26T01:54:04.563Z,98222.22
2022-08-26T01:59:12.699Z,98221.56
2022-08-26T02:04:22.027Z,98221.94
2022-08-26T02:09:26.811Z,98226.41
2022-08-26T02:14:34.455Z,98238.75
2022-08-26T02:19:41.277Z,98247.50
2022-08-26T02:24:50.957Z,98251.72
2022-08-26T02:29:58.163Z,98256.09
2022-08-26T02:35:01.008Z,98244.81
2022-08-26T02:40:07.931Z,98246.03
2022-08-26T02:45:11.620Z,98251.78
2022-08-26T02:50:14.920Z,98253.84
2022-08-26T02:55:20.866Z,98250.81
2022-08-26T03:00:28.151Z,98247.81
2022-08-26T03:05:31.648Z,98243.81
2022-08-26T03:10:36.660Z,98237.03
2022-08-26T03:15:40.541Z,98233.41
2022-08-26T03:20:43.976Z,98236.75
2022-08-26T03:25:51.618Z,98238.66
2022-08-26T03:30:54.640Z,98240.56
2022-08-26T03:35:57.698Z,98242.25
2022-08-26T03:41:02.092Z,98235.66
2022-08-26T03:46:06.726Z,98231.97
2022-08-26T03:51:13.736Z,98233.56
2022-08-26T03:56:22.831Z,98230.13
2022-08-26T04:01:26.698Z,98238.28
2022-08-26T04:06:32.474Z,98239.03
2022-08-26T04:11:39.601Z,98246.59
2022-08-26T04:16:43.701Z,98241.28
2022-08-26T04:21:47.782Z,98241.56
2022-08-26T04:26:52.661Z,98245.34
2022-08-26T04:31:56.475Z,98241.06
2022-08-26T04:36:59.932Z,98238.22
2022-08-26T04:42:04.275Z,98240.56
2022-08-26T04:47:07.112Z,98236.44
2022-08-26T04:52:09.962Z,98243.34
2022-08-26T04:57:14.092Z,98248.38
2022-08-26T05:02:21.224Z,98247.16
2022-08-26T05:07:23.970Z,98253.22
2022-08-26T05:12:29.050Z,98252.66
2022-08-26T05:17:32.638Z,98257.31
2022-08-26T05:22:35.633Z,98259.06
2022-08-26T05:27:39.774Z,98257.25
2022-08-26T05:32:42.527Z,98264.03
2022-08-26T05:37:45.389Z,98257.72
2022-08-26T05:42:49.516Z,98269.22
2022-08-26T05:47:52.288Z,98271.47
2022-08-26T05:52:55.067Z,98276.13
2022-08-26T05:57:59.455Z,98279.28
2022-08-26T06:03:05.770Z,98292.38
2022-08-26T06:08:13.968Z,98287.88
2022-08-26T06:13:20.430Z,98296.00
2022-08-26T06:18:27.309Z,98297.50
2022-08-26T06:23:49.231Z,98296.56
2022-08-26T06:28:53.384Z,98304.22
2022-08-26T06:33:58.235Z,98298.38
2022-08-26T06:39:03.090Z,98307.63
2022-08-26T06:44:08.460Z,98307.09
2022-08-26T06:49:12.362Z,98303.44
2022-08-26T06:54:15.147Z,98305.56
2022-08-26T06:59:21.074Z,98301.84
2022-08-26T07:04:24.993Z,98301.19
2022-08-26T07:09:33.085Z,98297.00
2022-08-26T07:14:37.373Z,98304.97
2022-08-26T07:19:40.560Z,98298.94
2022-08-26T07:24:43.916Z,98303.50
2022-08-26T07:29:48.138Z,98302.19
2022-08-26T07:34:51.724Z,98301.53
2022-08-26T07:39:54.534Z,98311.06
2022-08-26T07:44:58.795Z,98316.38
2022-08-26T07:50:01.735Z,98315.22
2022-08-26T07:55:07.639Z,98320.78
2022-08-26T08:00:15.934Z,98319.31
2022-08-26T08:05:22.621Z,98319.31
2022-08-26T08:10:30.991Z,98321.81
2022-08-26T08:15:37.352Z,98304.00
2022-08-26T08:20:44.695Z,98314.13
2022-08-26T08:25:50.561Z,98315.97
2022-08-26T08:30:55.495Z,98315.91
2022-08-26T08:35:58.577Z,98319.66
2022-08-26T08:41:01.407Z,98314.44
2022-08-26T08:46:13.715Z,98315.19
2022-08-26T08:51:24.600Z,98321.09
2022-08-26T08:56:31.901Z,98315.56
2022-08-26T09:01:48.450Z,98319.00
2022-08-26T09:12:10.257Z,98319.25
2022-08-26T09:17:22.159Z,98318.50
2022-08-26T09:22:33.355Z,98305.69
2022-08-26T09:27:38.908Z,98319.81
2022-08-26T09:32:44.436Z,98310.47
2022-08-26T09:37:59.538Z,98305.06
2022-08-26T09:43:22.325Z,98308.06
2022-08-26T09:48:36.345Z,98305.19
2022-08-26T09:53:53.025Z,98293.75
2022-08-26T09:58:56.684Z,98290.06
2022-08-26T10:04:10.452Z,98293.81
2022-08-26T10:09:19.119Z,98277.16
2022-08-26T10:14:27.124Z,98278.06
2022-08-26T10:19:55.957Z,98266.50
2022-08-26T10:25:03.275Z,98269.50
2022-08-26T10:30:11.312Z,98260.91
2022-08-26T10:35:19.240Z,98257.97
2022-08-26T10:40:26.430Z,98258.91
2022-08-26T10:45:43.572Z,98252.25
2022-08-26T10:50:48.457Z,98243.59
2022-08-26T10:56:00.462Z,98240.69
2022-08-26T11:01:32.568Z,98245.94
2022-08-26T11:06:37.126Z,98240.06
2022-08-26T11:11:49.065Z,98226.69
2022-08-26T11:16:53.579Z,98238.38
2022-08-26T11:22:06.497Z,98241.75
2022-08-26T11:27:11.478Z,98242.78
2022-08-26T11:32:26.181Z,98241.81
2022-08-26T11:37:36.166Z,98235.81
2022-08-26T11:42:45.546Z,98234.38
2022-08-26T11:47:49.363Z,98222.47
2022-08-26T11:53:02.027Z,98223.63
2022-08-26T11:58:07.438Z,98223.00
2022-08-26T12:03:15.940Z,98230.19
2022-08-26T12:08:24.291Z,98216.53
2022-08-26T12:13:30.543Z,98219.75
2022-08-26T12:18:36.158Z,98217.06
2022-08-26T12:23:45.842Z,98213.75
2022-08-26T12:28:53.727Z,98208.66
2022-08-26T12:33:59.133Z,98216.50
2022-08-26T12:39:11.439Z,98236.69
2022-08-26T12:44:37.865Z,98229.22
2022-08-26T12:49:42.312Z,98225.56
2022-08-26T12:55:02.882Z,98224.31
2022-08-26T13:00:31.788Z,98229.50
2022-08-26T13:05:35.712Z,98225.25
2022-08-26T13:10:42.210Z,98240.72
2022-08-26T13:15:45.287Z,98221.88
2022-08-26T13:20:48.073Z,98218.19
2022-08-26T13:25:52.906Z,98221.63
2022-08-26T13:30:55.653Z,98235.41
2022-08-26T13:35:58.572Z,98229.22
2022-08-26T13:41:03.584Z,98223.53
2022-08-26T13:46:06.961Z,98224.19
2022-08-26T13:51:09.673Z,98224.31
2022-08-26T13:56:14.529Z,98209.13
2022-08-26T14:01:18.334Z,98209.59
2022-08-26T14:06:21.500Z,98205.78
2022-08-26T14:11:26.904Z,98208.59
2022-08-26T14:16:34.381Z,98206.31
2022-08-26T14:21:39.559Z,98201.06
2022-08-26T14:26:43.710Z,98199.84
2022-08-26T14:31:46.588Z,98205.16
2022-08-26T14:36:49.375Z,98202.72
2022-08-26T14:41:57.429Z,98216.63
2022-08-26T14:47:02.177Z,98215.53
2022-08-26T14:52:05.283Z,98215.38
2022-08-26T14:57:12.115Z,98211.03
2022-08-26T15:02:32.847Z,98192.06
2022-08-26T15:07:36.676Z,98185.13
2022-08-26T15:12:41.448Z,98193.59
2022-08-26T15:17:44.549Z,98200.53
2022-08-26T15:22:48.033Z,98210.06
2022-08-26T15:27:52.419Z,98205.94
2022-08-26T15:32:55.179Z,98194.47
2022-08-26T15:37:57.907Z,98205.94
2022-08-26T15:43:18.412Z,98209.66
2022-08-26T15:48:27.018Z,98214.59
2022-08-26T15:53:32.568Z,98211.66
2022-08-26T15:58:36.745Z,98209.84
2022-08-26T16:03:39.639Z,98200.56
2022-08-26T16:08:42.763Z,98200.16
2022-08-26T16:13:47.772Z,98184.75
2022-08-26T16:18:50.672Z,98194.22
2022-08-26T16:23:53.460Z,98194.22
2022-08-26T16:28:57.621Z,98195.78
2022-08-26T16:34:00.708Z,98202.59
2022-08-26T16:39:04.785Z,98207.31
2022-08-26T16:44:11.355Z,98211.88
2022-08-26T16:49:14.086Z,98228.28
2022-08-26T16:54:17.645Z,98231.50
2022-08-26T16:59:22.591Z,98236.19
2022-08-26T17:04:25.328Z,98231.63
2022-08-26T17:09:28.288Z,98241.19
2022-08-26T17:14:33.459Z,98241.06
2022-08-26T17:19:40.947Z,98238.88
2022-08-26T17:24:49.795Z,98240.28
2022-08-26T17:29:53.999Z,98239.75
2022-08-26T17:34:56.731Z,98237.22
2022-08-26T17:39:59.507Z,98230.78
2022-08-26T17:45:03.631Z,98226.63
2022-08-26T17:50:09.116Z,98227.28
2022-08-26T17:55:14.942Z,98225.66
2022-08-26T18:00:23.657Z,98229.88
2022-08-26T18:05:29.855Z,98218.19
2022-08-26T18:10:32.602Z,98224.25
2022-08-26T18:15:39.572Z,98230.75
2022-08-26T18:20:43.018Z,98226.56
2022-08-26T18:25:45.756Z,98238.50
2022-08-26T18:30:49.941Z,98247.69
2022-08-26T18:35:52.712Z,98248.09
2022-08-26T18:40:55.409Z,98247.47
2022-08-26T18:46:08.044Z,98259.16
2022-08-26T18:51:17.090Z,98270.03
2022-08-26T18:56:20.701Z,98264.72
2022-08-26T19:01:27.597Z,98273.91
2022-08-26T19:06:32.975Z,98269.31
2022-08-26T19:11:37.620Z,98275.34
2022-08-26T19:16:49.604Z,98262.81
2022-08-26T19:21:53.298Z,98264.28
2022-08-26T19:26:59.707Z,98272.38
2022-08-26T19:32:05.344Z,98276.97
2022-08-26T19:37:08.050Z,98276.75
2022-08-26T19:42:10.840Z,98282.97
2022-08-26T19:47:15.576Z,98282.53
2022-08-26T19:52:18.831Z,98276.88
2022-08-26T19:57:21.594Z,98279.38
2022-08-26T20:02:25.966Z,98286.47
2022-08-26T20:07:28.762Z,98296.66
2022-08-26T20:12:33.276Z,98284.75
2022-08-26T20:17:37.489Z,98284.53
2022-08-26T20:22:40.211Z,98275.50
2022-08-26T20:27:43.306Z,98277.97
2022-08-26T20:32:48.390Z,98283.59
2022-08-26T20:37:51.231Z,98289.63
2022-08-26T20:42:53.943Z,98286.69
2022-08-26T20:47:58.305Z,98285.59
2022-08-26T20:53:01.249Z,98293.50
2022-08-26T20:58:04.245Z,98291.59
2022-08-26T21:03:08.672Z,98295.72
2022-08-26T21:08:12.153Z,98302.94
2022-08-26T21:13:15.097Z,98310.03
2022-08-26T21:18:19.700Z,98312.84
2022-08-26T21:23:25.378Z,98317.44
2022-08-26T21:28:30.377Z,98313.84
2022-08-26T21:33:35.136Z,98315.66
2022-08-26T21:38:38.114Z,98309.78
2022-08-26T21:43:41.918Z,98315.38
2022-08-26T21:48:50.689Z,98316.44
2022-08-26T21:53:55.177Z,98323.22
2022-08-26T21:58:58.998Z,98325.50
2022-08-26T22:04:04.828Z,98324.00
2022-08-26T22:09:07.608Z,98334.38
2022-08-26T22:14:11.373Z,98327.69
2022-08-26T22:19:17.290Z,98337.22
2022-08-26T22:24:21.831Z,98335.13
2022-08-26T22:29:25.587Z,98330.72
2022-08-26T22:34:29.657Z,98328.59
2022-08-26T22:39:32.397Z,98327.50
2022-08-26T22:44:36.851Z,98323.97
2022-08-26T22:49:40.906Z,98329.38
2022-08-26T22:54:43.720Z,98335.59
2022-08-26T22:59:46.813Z,98332.06
2022-08-26T23:04:52.255Z,98330.00
2022-08-26T23:09:54.986Z,98322.94
2022-08-26T23:14:57.915Z,98323.09
2022-08-26T23:20:02.889Z,98321.00
2022-08-26T23:25:08.308Z,98319.97
2022-08-26T23:30:16.223Z,98327.22
2022-08-26T23:35:22.524Z,98334.53
2022-08-26T23:40:29.172Z,98336.38
2022-08-26T23:45:33.497Z,98335.81
2022-08-26T23:50:57.243Z,98333.09
2022-08-26T23:55:59.959Z,98328.72
